메인 페이지
METAR-TAF:

METAR-TAF

공항 :

롤랑 가로스 공항

생드니, 레위니옹

위도: 20-53S, 경도: 055-31E, 고도: 21m

현재 날씨관측

예보는 35분 전, 10:00시(UTC)에 발표되었습니다.
동남동19kt
온도 26°C
습도 51%
기압 1023 hPa
시정 10km 이상
1500m 미만 상공 구름 및 적란운 없음

METAR: FMEE 131000Z AUTO 12019KT CAVOK 26/15 Q1023 BECMG 12020G30KT

시각: 14:35 (10:35 UTC)

예보

예보는 5 시간 35분 전, 05:00시(UTC)에 발표되었습니다.
예보 대상 시간: 13일 06시부터 14일 12시까지 (UTC)
동남동15kt
시정 10km 이상
고도 4000ft 상공 구름 보통
고도 5000ft 상공 구름 보통
전환 중
13일 06시부터 13일 08시까지 (UTC)
동남동20kt, 순간 최대 풍속 30kt
전환 중
13일 15시부터 13일 17시까지 (UTC)
남동12kt
전환 중
14일 04시부터 14일 06시까지 (UTC)
동남동20kt, 순간 최대 풍속 30kt

TAF: FMEE 130500Z 1306/1412 12015KT 9999 SCT040 SCT050 BECMG 1306/1308 12020G30KT BECMG 1315/1317 14012KT BECMG 1404/1406 12020G30KT

4,000개 이상의 공항 관측 자료 및 예보 (METAR 및 TAF 보고).

지도상에서 검색 가능한 기상관측소가 노란 점과 빨간 점으로 표시되어 있습니다.

기상관측소 명을 보려면 표시 위로 마우스를 이동하세요.

날씨 관측과 예보를 보려면 클릭하세요.

지도 변경 : 확대하려면 엑스 표시가 있는 녹색 버튼, 축소하려면 빼기 표시가 있는 녹색 버튼, 다음 페이지의 지도를 보려면 녹색 화살표를 클릭하세요.


METAR-TAF: